| time (UTC) | temp C | wind direction | speed KPH | gust KPH | rain 1hr cm | rain 24hr cm | rain mn cm | humidity % | barometer mb |
| 20260903005918 | 28 | 141 | 6.4 | 9.7 | 0.00 | 0.00 | 0.00 | 22 | 1015.1 |
| 20260903005516 | 28 | 157 | 4.8 | 14.5 | 0.00 | 0.00 | 0.00 | 21 | 1015.1 |
| 20260903004312 | 29 | 135 | 6.4 | 11.3 | 0.00 | 0.00 | 0.00 | 21 | 1015.0 |
| 20260903003509 | 29 | 180 | 3.2 | 11.3 | 0.00 | 0.00 | 0.00 | 20 | 1015.1 |
| 20260903003108 | 29 | 177 | 3.2 | 12.9 | 0.00 | 0.00 | 0.00 | 20 | 1015.1 |
| 20260903002707 | 29 | 145 | 4.8 | 12.9 | 0.00 | 0.00 | 0.00 | 20 | 1015.0 |
| 20260903002306 | 30 | 162 | 8.0 | 12.9 | 0.00 | 0.00 | 0.00 | 20 | 1015.0 |
| 20260903001904 | 30 | 180 | 8.0 | 11.3 | 0.00 | 0.00 | 0.00 | 19 | 1015.1 |
| 20260902235459 | 30 | 135 | 12.9 | 0.0 | 0.00 | 0.00 | 0.00 | 19 | 10.1 |
| 20260902235456 | 30 | 135 | 12.9 | 16.1 | 0.00 | 0.00 | 0.00 | 19 | 1015.2 |
| 20260902235057 | 30 | 186 | 11.3 | 11.3 | 0.00 | 0.00 | 0.00 | 19 | 1015.1 |
| 20260902234654 | 29 | 123 | 11.3 | 17.7 | 0.00 | 0.00 | 0.00 | 18 | 1015.2 |
| 20260902233444 | 31 | 135 | 12.9 | 12.9 | 0.00 | 0.00 | 0.00 | 19 | 1015.3 |
| 20260902233043 | 31 | 162 | 4.8 | 16.1 | 0.00 | 0.00 | 0.00 | 19 | 1015.3 |
| 20260902232240 | 31 | 135 | 16.1 | 17.7 | 0.00 | 0.00 | 0.00 | 18 | 1015.3 |
| 20260902231839 | 32 | 112 | 6.4 | 16.1 | 0.00 | 0.00 | 0.00 | 18 | 1015.4 |
| 20260902231438 | 33 | 186 | 8.0 | 12.9 | 0.00 | 0.00 | 0.00 | 18 | 1015.4 |
| 20260902231036 | 32 | 180 | 9.7 | 16.1 | 0.00 | 0.00 | 0.00 | 18 | 1015.4 |
| 20260902230635 | 32 | 139 | 11.3 | 16.1 | 0.00 | 0.00 | 0.00 | 18 | 1015.5 |
| 20260902230233 | 33 | 173 | 11.3 | 14.5 | 0.00 | 0.00 | 0.00 | 18 | 1015.5 |
| 20260902225834 | 33 | 155 | 6.4 | 16.1 | 0.00 | 0.00 | 0.00 | 18 | 1015.5 |
| 20260902225832 | 33 | 155 | 6.4 | 16.1 | 0.00 | 0.00 | 0.00 | 18 | 1015.5 |
| 20260902225431 | 33 | 177 | 9.7 | 14.5 | 0.00 | 0.00 | 0.00 | 17 | 1015.5 |
| 20260902225030 | 33 | 307 | 9.7 | 12.9 | 0.00 | 0.00 | 0.00 | 18 | 1015.5 |
| 20260902224629 | 33 | 200 | 11.3 | 12.9 | 0.00 | 0.00 | 0.00 | 18 | 1015.6 |
| 20260902224228 | 33 | 180 | 11.3 | 14.5 | 0.00 | 0.00 | 0.00 | 17 | 1015.6 |
| 20260902223825 | 33 | 162 | 8.0 | 19.3 | 0.00 | 0.00 | 0.00 | 18 | 1015.6 |
| 20260902223424 | 34 | 200 | 6.4 | 16.1 | 0.00 | 0.00 | 0.00 | 18 | 1015.8 |
| 20260902223025 | 34 | 191 | 14.5 | 16.1 | 0.00 | 0.00 | 0.00 | 18 | 1015.8 |
| 20260902221820 | 33 | 189 | 8.0 | 16.1 | 0.00 | 0.00 | 0.00 | 19 | 1015.9 |
| 20260902221420 | 33 | 108 | 6.4 | 14.5 | 0.00 | 0.00 | 0.00 | 19 | 1016.0 |
| 20260902221017 | 33 | 150 | 8.0 | 16.1 | 0.00 | 0.00 | 0.00 | 19 | 1016.1 |
| 20260902220617 | 33 | 182 | 6.4 | 16.1 | 0.00 | 0.00 | 0.00 | 19 | 1016.1 |
| 20260902220214 | 33 | 155 | 11.3 | 19.3 | 0.00 | 0.00 | 0.00 | 19 | 1016.1 |
| 20260902215815 | 33 | 172 | 14.5 | 14.5 | 0.00 | 0.00 | 0.00 | 19 | 1016.1 |
| 20260902215412 | 34 | 193 | 12.9 | 19.3 | 0.00 | 0.00 | 0.00 | 19 | 1016.2 |
| 20260902215010 | 33 | 301 | 4.8 | 14.5 | 0.00 | 0.00 | 0.00 | 19 | 1016.3 |
| 20260902214609 | 34 | 220 | 6.4 | 16.1 | 0.00 | 0.00 | 0.00 | 19 | 1016.3 |
| 20260902214208 | 33 | 186 | 4.8 | 19.3 | 0.00 | 0.00 | 0.00 | 19 | 1016.3 |
| 20260902213807 | 34 | 185 | 6.4 | 16.1 | 0.00 | 0.00 | 0.00 | 19 | 1016.3 |
| 20260902212602 | 33 | 128 | 4.8 | 17.7 | 0.00 | 0.00 | 0.00 | 19 | 1016.4 |
| 20260902211359 | 35 | 227 | 4.8 | 12.9 | 0.00 | 0.00 | 0.00 | 20 | 1016.5 |
| 20260902210958 | 35 | 192 | 8.0 | 14.5 | 0.00 | 0.00 | 0.00 | 20 | 1016.5 |
| 20260902210155 | 34 | 73 | 1.6 | 14.5 | 0.00 | 0.00 | 0.00 | 20 | 1016.6 |
| 20260902205754 | 35 | 305 | 6.4 | 12.9 | 0.00 | 0.00 | 0.00 | 21 | 1016.6 |
| 20260902205352 | 35 | 279 | 3.2 | 11.3 | 0.00 | 0.00 | 0.00 | 21 | 1016.7 |
| 20260902204550 | 34 | 202 | 0.0 | 6.4 | 0.00 | 0.00 | 0.00 | 21 | 1016.8 |
| 20260902203347 | 33 | 205 | 4.8 | 6.4 | 0.00 | 0.00 | 0.00 | 22 | 1016.8 |
| 20260902202945 | 33 | 182 | 4.8 | 6.4 | 0.00 | 0.00 | 0.00 | 22 | 1016.9 |
| 20260902202622 | 33 | 340 | 1.6 | 8.0 | 0.00 | 0.00 | 0.00 | 22 | 1016.9 |
| 20260902202142 | 32 | 137 | 6.4 | 12.9 | 0.00 | 0.00 | 0.00 | 22 | 1016.9 |
| 20260902201741 | 33 | 110 | 4.8 | 8.0 | 0.00 | 0.00 | 0.00 | 22 | 1017.0 |
| 20260902201339 | 33 | 99 | 4.8 | 12.9 | 0.00 | 0.00 | 0.00 | 23 | 1017.0 |
| 20260902200938 | 32 | 103 | 1.6 | 6.4 | 0.00 | 0.00 | 0.00 | 23 | 1017.1 |
| 20260902200136 | 31 | 189 | 9.7 | 9.7 | 0.00 | 0.00 | 0.00 | 23 | 1017.0 |
| 20260902195735 | 30 | 76 | 6.4 | 11.3 | 0.00 | 0.00 | 0.00 | 23 | 1017.1 |
| 20260902195334 | 30 | 128 | 9.7 | 12.9 | 0.00 | 0.00 | 0.00 | 23 | 1017.1 |
| 20260902194931 | 30 | 81 | 8.0 | 16.1 | 0.00 | 0.00 | 0.00 | 23 | 1017.3 |
| 20260902194530 | 30 | 182 | 4.8 | 16.1 | 0.00 | 0.00 | 0.00 | 23 | 1017.3 |
| 20260902194500 | 30 | 47 | 1.6 | 11.3 | 0.00 | 0.00 | 0.00 | 23 | 1017.4 |
| 20260902194129 | 30 | 47 | 1.6 | 11.3 | 0.00 | 0.00 | 0.00 | 23 | 1017.4 |
| 20260902193728 | 30 | 182 | 3.2 | 14.5 | 0.00 | 0.00 | 0.00 | 24 | 1017.4 |
| 20260902193327 | 30 | 132 | 4.8 | 14.5 | 0.00 | 0.00 | 0.00 | 24 | 1017.4 |
| 20260902192926 | 30 | 19 | 0.0 | 9.7 | 0.00 | 0.00 | 0.00 | 24 | 1017.4 |
| 20260902192524 | 30 | 137 | 9.7 | 14.5 | 0.00 | 0.00 | 0.00 | 24 | 1017.5 |
| 20260902192123 | 30 | 135 | 6.4 | 16.1 | 0.00 | 0.00 | 0.00 | 24 | 1017.6 |
| 20260902191320 | 32 | 180 | 4.8 | 11.3 | 0.00 | 0.00 | 0.00 | 24 | 1017.6 |
| 20260902190518 | 31 | 186 | 8.0 | 12.9 | 0.00 | 0.00 | 0.00 | 24 | 1017.6 |
| 20260902190116 | 30 | 67 | 3.2 | 11.3 | 0.00 | 0.00 | 0.00 | 24 | 1017.6 |
| 20260902185715 | 30 | 330 | 1.6 | 8.0 | 0.00 | 0.00 | 0.00 | 24 | 1017.7 |
| 20260902184913 | 30 | 155 | 9.7 | 11.3 | 0.00 | 0.00 | 0.00 | 25 | 1017.8 |
| 20260902184512 | 31 | 160 | 4.8 | 4.8 | 0.00 | 0.00 | 0.00 | 25 | 1017.8 |
| 20260902184110 | 30 | 99 | 0.0 | 9.7 | 0.00 | 0.00 | 0.00 | 25 | 1017.9 |
| 20260902183830 | 30 | 130 | 6.4 | 12.9 | 0.00 | 0.00 | 0.00 | 25 | 1017.9 |
| 20260902183709 | 30 | 130 | 6.4 | 12.9 | 0.00 | 0.00 | 0.00 | 25 | 1017.9 |
| 20260902182906 | 30 | 177 | 4.8 | 8.0 | 0.00 | 0.00 | 0.00 | 25 | 1017.9 |
| 20260902182720 | 28 | 99 | 9.7 | 12.9 | 0.00 | 0.00 | 0.00 | 26 | 1017.8 |
| 20260902182104 | 28 | 99 | 9.7 | 12.9 | 0.00 | 0.00 | 0.00 | 26 | 1017.8 |
| 20260902181301 | 28 | 141 | 11.3 | 14.5 | 0.00 | 0.00 | 0.00 | 26 | 1018.0 |
| 20260902180057 | 28 | 85 | 3.2 | 11.3 | 0.00 | 0.00 | 0.00 | 28 | 1017.9 |
| 20260902175656 | 28 | 85 | 3.2 | 14.5 | 0.00 | 0.00 | 0.00 | 28 | 1017.8 |
| 20260902175255 | 28 | 195 | 6.4 | 11.3 | 0.00 | 0.00 | 0.00 | 28 | 1017.9 |
| 20260902174853 | 27 | 117 | 6.4 | 14.5 | 0.00 | 0.00 | 0.00 | 29 | 1017.8 |
| 20260902174452 | 28 | 110 | 14.5 | 14.5 | 0.00 | 0.00 | 0.00 | 29 | 1017.7 |
| 20260902173650 | 26 | 110 | 4.8 | 16.1 | 0.00 | 0.00 | 0.00 | 30 | 1017.9 |
| 20260902173248 | 27 | 92 | 11.3 | 12.9 | 0.00 | 0.00 | 0.00 | 31 | 1017.8 |
| 20260902172445 | 28 | 182 | 3.2 | 8.0 | 0.00 | 0.00 | 0.00 | 31 | 1018.0 |
| 20260902171657 | 26 | 103 | 6.4 | 12.9 | 0.00 | 0.00 | 0.00 | 32 | 1018.0 |
| 20260902171650 | 26 | 137 | 8.0 | 9.7 | 0.00 | 0.00 | 0.00 | 32 | 1018.0 |
| 20260902171242 | 26 | 103 | 6.4 | 12.9 | 0.00 | 0.00 | 0.00 | 32 | 1018.0 |
| 20260902170841 | 26 | 85 | 6.4 | 9.7 | 0.00 | 0.00 | 0.00 | 33 | 1017.9 |
| 20260902170038 | 25 | 92 | 6.4 | 12.9 | 0.00 | 0.00 | 0.00 | 34 | 1017.9 |
| 20260902163229 | 25 | 157 | 3.2 | 11.3 | 0.00 | 0.00 | 0.00 | 37 | 1017.7 |
| 20260902162852 | 26 | 137 | 3.2 | 8.0 | 0.00 | 0.00 | 0.00 | 38 | 1017.8 |
| 20260902162829 | 26 | 114 | 4.8 | 11.3 | 0.00 | 0.00 | 0.00 | 58 | 1017.7 |
| 20260902162426 | 26 | 137 | 3.2 | 8.0 | 0.00 | 0.00 | 0.00 | 38 | 1017.8 |
| 20260902162026 | 26 | 180 | 8.0 | 8.0 | 0.00 | 0.00 | 0.00 | 39 | 1017.8 |
| 20260902161628 | 25 | 135 | 4.8 | 11.3 | 0.00 | 0.00 | 0.00 | 39 | 1017.9 |
| 20260902155546 | 24 | 331 | 1.6 | 4.8 | 0.00 | 0.00 | 0.00 | 42 | 1017.9 |
| 20260902155430 | 24 | 331 | 1.6 | 4.8 | 0.00 | 0.00 | 0.00 | 42 | 1017.9 |
| 20260902155216 | 24 | 331 | 1.6 | 4.8 | 0.00 | 0.00 | 0.00 | 42 | 1017.9 |
| 20260902154814 | 24 | 40 | 1.6 | 1.6 | 0.00 | 0.00 | 0.00 | 42 | 1017.9 |
| 20260902154750 | 22 | 315 | 0.0 | 3.2 | 0.00 | 0.00 | 0.00 | 44 | 1017.8 |
| 20260902153612 | 22 | 315 | 0.0 | 3.2 | 0.00 | 0.00 | 0.00 | 44 | 1017.8 |
| 20260902153210 | 22 | 324 | 0.0 | 3.2 | 0.00 | 0.00 | 0.00 | 44 | 1017.7 |
| 20260902152809 | 22 | 160 | 0.0 | 3.2 | 0.00 | 0.00 | 0.00 | 44 | 1017.7 |
| 20260902152407 | 21 | 42 | 0.0 | 1.6 | 0.00 | 0.00 | 0.00 | 44 | 1017.6 |
| 20260902151604 | 21 | 310 | 0.0 | 3.2 | 0.00 | 0.00 | 0.00 | 45 | 1017.7 |
| 20260902151205 | 21 | 22 | 1.6 | 1.6 | 0.00 | 0.00 | 0.00 | 45 | 1017.7 |
| 20260902150802 | 20 | 320 | 0.0 | 0.0 | 0.00 | 0.00 | 0.00 | 45 | 1017.7 |
| 20260902150401 | 20 | 317 | 0.0 | 0.0 | 0.00 | 0.00 | 0.00 | 46 | 1017.7 |
| 20260902145959 | 20 | 335 | 0.0 | 1.6 | 0.00 | 0.00 | 0.00 | 46 | 1017.8 |
| 20260902145558 | 19 | 299 | 0.0 | 0.0 | 0.00 | 0.00 | 0.00 | 46 | 1017.7 |
| 20260902145157 | 19 | 330 | 0.0 | 1.6 | 0.00 | 0.00 | 0.00 | 46 | 1017.7 |
| 20260902144756 | 19 | 319 | 0.0 | 1.6 | 0.00 | 0.00 | 0.00 | 47 | 1017.8 |
| 20260902144355 | 18 | 45 | 0.0 | 0.0 | 0.00 | 0.00 | 0.00 | 47 | 1017.8 |
| 20260902143953 | 17 | 42 | 0.0 | 0.0 | 0.00 | 0.00 | 0.00 | 47 | 1017.7 |
| 20260902143551 | 17 | 234 | 0.0 | 0.0 | 0.00 | 0.00 | 0.00 | 48 | 1017.7 |
| 20260902143150 | 16 | 231 | 0.0 | 0.0 | 0.00 | 0.00 | 0.00 | 48 | 1017.6 |
| 20260902142749 | 16 | 225 | 0.0 | 0.0 | 0.00 | 0.00 | 0.00 | 48 | 1017.7 |
| 20260902142348 | 15 | 279 | 0.0 | 0.0 | 0.00 | 0.00 | 0.00 | 48 | 1017.6 |
| 20260902141947 | 15 | 281 | 0.0 | 0.0 | 0.00 | 0.00 | 0.00 | 49 | 1017.6 |
| 20260902141146 | 14 | 310 | 0.0 | 0.0 | 0.00 | 0.00 | 0.00 | 49 | 1017.6 |
| 20260902140744 | 14 | 303 | 0.0 | 0.0 | 0.00 | 0.00 | 0.00 | 49 | 1.0 |
| 20260902140319 | 13 | 297 | 0.0 | 0.0 | 0.00 | 0.00 | 0.00 | 48 | 1017.3 |
| 20260902140303 | 13 | 306 | 0.0 | 0.0 | 0.00 | 0.00 | 0.00 | 48 | 1017.3 |
| 20260902135940 | 13 | 306 | 0.0 | 0.0 | 0.00 | 0.00 | 0.00 | 48 | 1017.3 |
| 20260902135539 | 13 | 297 | 0.0 | 0.0 | 0.00 | 0.00 | 0.00 | 48 | 1017.3 |
| 20260902135138 | 12 | 326 | 0.0 | 0.0 | 0.00 | 0.00 | 0.00 | 48 | 1017.2 |
| 20260902134909 | 12 | 292 | 0.0 | 0.0 | 0.00 | 0.00 | 0.00 | 48 | 1017.2 |
| 20260902134812 | 12 | 292 | 0.0 | 0.0 | 0.00 | 0.00 | 0.00 | 48 | 1017.2 |
| 20260902134736 | 12 | 292 | 0.0 | 0.0 | 0.00 | 0.00 | 0.00 | 48 | 1017.2 |
| 20260902134335 | 12 | 261 | 0.0 | 0.0 | 0.00 | 0.00 | 0.00 | 48 | 1017.2 |
| 20260902133934 | 12 | 237 | 0.0 | 1.6 | 0.00 | 0.00 | 0.00 | 48 | 1017.2 |
| 20260902133533 | 12 | 301 | 1.6 | 1.6 | 0.00 | 0.00 | 0.00 | 48 | 1017.2 |
| 20260902132730 | 12 | 283 | 0.0 | 0.0 | 0.00 | 0.00 | 0.00 | 48 | 1017.2 |
| 20260902132328 | 12 | 283 | 0.0 | 0.0 | 0.00 | 0.00 | 0.00 | 48 | 1017.2 |
| 20260902131125 | 12 | 283 | 1.6 | 1.6 | 0.00 | 0.00 | 0.00 | 48 | 1017.1 |
| 20260902130724 | 12 | 274 | 0.0 | 0.0 | 0.00 | 0.00 | 0.00 | 48 | 1017.1 |
| 20260902125519 | 12 | 279 | 0.0 | 0.0 | 0.00 | 0.00 | 0.00 | 47 | 1017.2 |
| 20260902125118 | 12 | 231 | 0.0 | 0.0 | 0.00 | 0.00 | 0.00 | 47 | 1017.2 |
| 20260902124717 | 12 | 274 | 0.0 | 1.6 | 0.00 | 0.00 | 0.00 | 47 | 1017.3 |
| 20260902124316 | 12 | 306 | 0.0 | 0.0 | 0.00 | 0.00 | 0.00 | 47 | 1017.3 |
| 20260902123915 | 13 | 339 | 0.0 | 1.6 | 0.00 | 0.00 | 0.00 | 47 | 1017.2 |
| 20260902123513 | 13 | 333 | 0.0 | 0.0 | 0.00 | 0.00 | 0.00 | 47 | 1017.2 |
| 20260902123112 | 13 | 290 | 0.0 | 0.0 | 0.00 | 0.00 | 0.00 | 47 | 1017.2 |
| 20260902121908 | 13 | 301 | 0.0 | 0.0 | 0.00 | 0.00 | 0.00 | 46 | 1017.3 |
| 20260902121105 | 13 | 306 | 0.0 | 0.0 | 0.00 | 0.00 | 0.00 | 46 | 1017.4 |
| 20260902120704 | 13 | 294 | 0.0 | 0.0 | 0.00 | 0.00 | 0.00 | 46 | 1017.4 |
| 20260902120303 | 13 | 236 | 0.0 | 0.0 | 0.00 | 0.00 | 0.00 | 46 | 1017.3 |
| 20260902115902 | 13 | 274 | 0.0 | 1.6 | 0.00 | 0.00 | 0.00 | 46 | 1017.3 |
| 20260902115501 | 13 | 276 | 1.6 | 1.6 | 0.00 | 0.00 | 0.00 | 46 | 1017.4 |
| 20260902115059 | 13 | 279 | 0.0 | 1.6 | 0.00 | 0.00 | 0.00 | 46 | 1017.4 |
| 20260902114657 | 13 | 283 | 0.0 | 0.0 | 0.00 | 0.00 | 0.00 | 46 | 1017.4 |
| 20260902114256 | 13 | 279 | 0.0 | 0.0 | 0.00 | 0.00 | 0.00 | 46 | 1017.4 |
| 20260902113902 | 13 | 288 | 0.0 | 1.6 | 0.00 | 0.00 | 0.00 | 46 | 1017.4 |
| 20260902113859 | 13 | 288 | 0.0 | 1.6 | 0.00 | 0.00 | 0.00 | 46 | 1017.4 |
| 20260902113454 | 13 | 283 | 1.6 | 1.6 | 0.00 | 0.00 | 0.00 | 46 | 1017.4 |
| 20260902113054 | 13 | 234 | 0.0 | 0.0 | 0.00 | 0.00 | 0.00 | 46 | 1017.4 |
| 20260902112652 | 13 | 235 | 0.0 | 0.0 | 0.00 | 0.00 | 0.00 | 46 | 1017.3 |
| 20260902111849 | 13 | 234 | 0.0 | 0.0 | 0.00 | 0.00 | 0.00 | 45 | 1017.2 |
| 20260902111448 | 13 | 288 | 0.0 | 0.0 | 0.00 | 0.00 | 0.00 | 45 | 1017.3 |
| 20260902111046 | 14 | 292 | 0.0 | 0.0 | 0.00 | 0.00 | 0.00 | 45 | 1017.3 |
| 20260902110739 | 14 | 283 | 0.0 | 0.0 | 0.00 | 0.00 | 0.00 | 45 | 1017.3 |
| 20260902110645 | 14 | 283 | 0.0 | 0.0 | 0.00 | 0.00 | 0.00 | 45 | 1017.3 |
| 20260902105845 | 13 | 283 | 0.0 | 0.0 | 0.00 | 0.00 | 0.00 | 45 | 1017.4 |
| 20260902105441 | 14 | 274 | 0.0 | 0.0 | 0.00 | 0.00 | 0.00 | 45 | 1017.3 |
| 20260902105040 | 14 | 315 | 0.0 | 1.6 | 0.00 | 0.00 | 0.00 | 45 | 1017.3 |
| 20260902104639 | 14 | 321 | 0.0 | 0.0 | 0.00 | 0.00 | 0.00 | 45 | 1017.2 |
| 20260902104238 | 14 | 255 | 0.0 | 1.6 | 0.00 | 0.00 | 0.00 | 45 | 1017.3 |
| 20260902103840 | 14 | 184 | 1.6 | 1.6 | 0.00 | 0.00 | 0.00 | 45 | 1017.2 |
| 20260902103434 | 14 | 184 | 0.0 | 0.0 | 0.00 | 0.00 | 0.00 | 45 | 1017.3 |
| 20260902103033 | 14 | 184 | 0.0 | 1.6 | 0.00 | 0.00 | 0.00 | 45 | 1017.3 |
| 20260902102632 | 14 | 231 | 0.0 | 1.6 | 0.00 | 0.00 | 0.00 | 45 | 1017.4 |
| 20260902102231 | 14 | 279 | 0.0 | 1.6 | 0.00 | 0.00 | 0.00 | 45 | 1017.4 |
| 20260902101831 | 14 | 279 | 0.0 | 0.0 | 0.00 | 0.00 | 0.00 | 45 | 1017.3 |
| 20260902101429 | 14 | 346 | 0.0 | 1.6 | 0.00 | 0.00 | 0.00 | 45 | 1017.3 |
| 20260902100630 | 13 | 40 | 0.0 | 1.6 | 0.00 | 0.00 | 0.00 | 45 | 1017.3 |
| 20260902100228 | 13 | 180 | 0.0 | 0.0 | 0.00 | 0.00 | 0.00 | 45 | 1017.2 |
| 20260902095823 | 13 | 236 | 0.0 | 1.6 | 0.00 | 0.00 | 0.00 | 45 | 1017.2 |
| 20260902095422 | 13 | 180 | 0.0 | 3.2 | 0.00 | 0.00 | 0.00 | 45 | 1017.2 |
| 20260902095023 | 13 | 42 | 1.6 | 1.6 | 0.00 | 0.00 | 0.00 | 45 | 1017.3 |
| 20260902094218 | 13 | 324 | 0.0 | 0.0 | 0.00 | 0.00 | 0.00 | 45 | 1017.3 |
| 20260902093416 | 13 | 279 | 1.6 | 1.6 | 0.00 | 0.00 | 0.00 | 45 | 1017.4 |
| 20260902092211 | 13 | 279 | 1.6 | 1.6 | 0.00 | 0.00 | 0.00 | 44 | 1017.4 |
| 20260902091810 | 13 | 279 | 1.6 | 1.6 | 0.00 | 0.00 | 0.00 | 44 | 1017.3 |
| 20260902091009 | 13 | 233 | 1.6 | 1.6 | 0.00 | 0.00 | 0.00 | 44 | 1017.3 |
| 20260902090607 | 13 | 301 | 0.0 | 0.0 | 0.00 | 0.00 | 0.00 | 44 | 1017.3 |
| 20260902085804 | 13 | 297 | 0.0 | 0.0 | 0.00 | 0.00 | 0.00 | 44 | 1017.4 |
| 20260902085402 | 13 | 279 | 0.0 | 0.0 | 0.00 | 0.00 | 0.00 | 44 | 1017.3 |
| 20260902085003 | 13 | 297 | 0.0 | 1.6 | 0.00 | 0.00 | 0.00 | 44 | 1017.3 |
| 20260902084159 | 13 | 230 | 0.0 | 0.0 | 0.00 | 0.00 | 0.00 | 44 | 1017.4 |
| 20260902083758 | 13 | 232 | 0.0 | 0.0 | 0.00 | 0.00 | 0.00 | 43 | 1017.4 |
| 20260902083357 | 13 | 232 | 0.0 | 0.0 | 0.00 | 0.00 | 0.00 | 43 | 1017.3 |
| 20260902082955 | 13 | 230 | 0.0 | 0.0 | 0.00 | 0.00 | 0.00 | 43 | 1017.4 |
| 20260902082554 | 13 | 274 | 0.0 | 0.0 | 0.00 | 0.00 | 0.00 | 43 | 1017.4 |
| 20260902082153 | 13 | 292 | 0.0 | 0.0 | 0.00 | 0.00 | 0.00 | 43 | 1017.3 |
| 20260902081350 | 13 | 279 | 0.0 | 0.0 | 0.00 | 0.00 | 0.00 | 43 | 1017.3 |
| 20260902080949 | 13 | 283 | 0.0 | 1.6 | 0.00 | 0.00 | 0.00 | 43 | 1017.3 |
| 20260902080547 | 13 | 290 | 0.0 | 0.0 | 0.00 | 0.00 | 0.00 | 43 | 1017.3 |
| 20260902080146 | 13 | 306 | 0.0 | 0.0 | 0.00 | 0.00 | 0.00 | 42 | 1017.2 |
| 20260902075745 | 13 | 38 | 0.0 | 0.0 | 0.00 | 0.00 | 0.00 | 42 | 1017.3 |
| 20260902075344 | 14 | 288 | 0.0 | 0.0 | 0.00 | 0.00 | 0.00 | 42 | 1017.3 |
| 20260902074942 | 14 | 279 | 0.0 | 0.0 | 0.00 | 0.00 | 0.00 | 42 | 1017.3 |
| 20260902074541 | 14 | 283 | 0.0 | 0.0 | 0.00 | 0.00 | 0.00 | 42 | 1017.2 |
| 20260902073337 | 14 | 346 | 1.6 | 1.6 | 0.00 | 0.00 | 0.00 | 42 | 1017.1 |
| 20260902072936 | 14 | 40 | 0.0 | 0.0 | 0.00 | 0.00 | 0.00 | 42 | 1017.1 |
| 20260902072535 | 14 | 230 | 0.0 | 0.0 | 0.00 | 0.00 | 0.00 | 42 | 1017.1 |
| 20260902072133 | 14 | 288 | 0.0 | 1.6 | 0.00 | 0.00 | 0.00 | 42 | 1017.0 |
| 20260902071732 | 14 | 274 | 0.0 | 0.0 | 0.00 | 0.00 | 0.00 | 42 | 1017.1 |
| 20260902071613 | 14 | 270 | 0.0 | 0.0 | 0.00 | 0.00 | 0.00 | 42 | 1017.0 |
| 20260902071331 | 14 | 274 | 0.0 | 0.0 | 0.00 | 0.00 | 0.00 | 42 | 1017.0 |
| 20260902070929 | 14 | 270 | 0.0 | 0.0 | 0.00 | 0.00 | 0.00 | 42 | 1017.0 |
| 20260902070528 | 14 | 283 | 0.0 | 0.0 | 0.00 | 0.00 | 0.00 | 41 | 1017.0 |
| 20260902070127 | 14 | 237 | 0.0 | 0.0 | 0.00 | 0.00 | 0.00 | 41 | 1017.0 |
| 20260902065725 | 15 | 227 | 0.0 | 0.0 | 0.00 | 0.00 | 0.00 | 41 | 1017.0 |
| 20260902065324 | 15 | 237 | 0.0 | 0.0 | 0.00 | 0.00 | 0.00 | 41 | 1016.9 |
| 20260902064924 | 15 | 290 | 0.0 | 0.0 | 0.00 | 0.00 | 0.00 | 41 | 1016.9 |
| 20260902064121 | 15 | 306 | 0.0 | 0.0 | 0.00 | 0.00 | 0.00 | 41 | 1016.8 |
| 20260902063317 | 15 | 310 | 0.0 | 0.0 | 0.00 | 0.00 | 0.00 | 41 | 1016.7 |
| 20260902062515 | 15 | 326 | 0.0 | 0.0 | 0.00 | 0.00 | 0.00 | 41 | 1016.7 |
| 20260902061713 | 15 | 292 | 0.0 | 0.0 | 0.00 | 0.00 | 0.00 | 40 | 1016.7 |
| 20260902061312 | 16 | 195 | 0.0 | 0.0 | 0.00 | 0.00 | 0.00 | 40 | 1016.7 |
| 20260902060910 | 16 | 189 | 0.0 | 1.6 | 0.00 | 0.00 | 0.00 | 40 | 1016.8 |
| 20260902060509 | 16 | 186 | 0.0 | 0.0 | 0.00 | 0.00 | 0.00 | 40 | 1016.7 |
| 20260902060107 | 16 | 279 | 0.0 | 0.0 | 0.00 | 0.00 | 0.00 | 40 | 1016.6 |
| 20260902055706 | 16 | 283 | 0.0 | 0.0 | 0.00 | 0.00 | 0.00 | 39 | 1016.6 |
| 20260902055307 | 16 | 279 | 0.0 | 1.6 | 0.00 | 0.00 | 0.00 | 39 | 1016.7 |
| 20260902054904 | 16 | 233 | 0.0 | 1.6 | 0.00 | 0.00 | 0.00 | 39 | 1016.6 |
| 20260902054101 | 16 | 279 | 1.6 | 1.6 | 0.00 | 0.00 | 0.00 | 39 | 1016.6 |
| 20260902053700 | 16 | 292 | 0.0 | 0.0 | 0.00 | 0.00 | 0.00 | 39 | 1016.6 |
| 20260902053259 | 16 | 274 | 0.0 | 0.0 | 0.00 | 0.00 | 0.00 | 38 | 1016.7 |
| 20260902052858 | 16 | 288 | 0.0 | 0.0 | 0.00 | 0.00 | 0.00 | 38 | 1016.6 |
| 20260902052456 | 16 | 38 | 0.0 | 0.0 | 0.00 | 0.00 | 0.00 | 38 | 1016.7 |
| 20260902052054 | 17 | 42 | 0.0 | 1.6 | 0.00 | 0.00 | 0.00 | 38 | 1016.6 |
| 20260902050049 | 17 | 312 | 0.0 | 0.0 | 0.00 | 0.00 | 0.00 | 37 | 1016.6 |
| 20260902045647 | 17 | 299 | 0.0 | 0.0 | 0.00 | 0.00 | 0.00 | 37 | 1016.6 |
| 20260902044844 | 17 | 315 | 0.0 | 0.0 | 0.00 | 0.00 | 0.00 | 36 | 1016.6 |
| 20260902044443 | 18 | 301 | 0.0 | 0.0 | 0.00 | 0.00 | 0.00 | 36 | 1016.5 |
| 20260902044042 | 18 | 274 | 0.0 | 0.0 | 0.00 | 0.00 | 0.00 | 36 | 1016.4 |
| 20260902043641 | 18 | 290 | 0.0 | 1.6 | 0.00 | 0.00 | 0.00 | 35 | 1016.3 |
| 20260902043239 | 18 | 182 | 1.6 | 1.6 | 0.00 | 0.00 | 0.00 | 35 | 1016.3 |
| 20260902042838 | 18 | 230 | 0.0 | 3.2 | 0.00 | 0.00 | 0.00 | 35 | 1016.3 |
| 20260902042437 | 18 | 279 | 0.0 | 1.6 | 0.00 | 0.00 | 0.00 | 35 | 1016.3 |
| 20260902042036 | 18 | 297 | 0.0 | 0.0 | 0.00 | 0.00 | 0.00 | 35 | 1016.2 |
| 20260902041236 | 19 | 301 | 0.0 | 0.0 | 0.00 | 0.00 | 0.00 | 34 | 1016.0 |
| 20260902040831 | 19 | 279 | 0.0 | 0.0 | 0.00 | 0.00 | 0.00 | 34 | 1016.0 |
| 20260902040430 | 19 | 270 | 0.0 | 0.0 | 0.00 | 0.00 | 0.00 | 34 | 1016.0 |
| 20260902040030 | 19 | 184 | 1.6 | 3.2 | 0.00 | 0.00 | 0.00 | 33 | 1015.9 |
| 20260902035628 | 19 | 76 | 1.6 | 3.2 | 0.00 | 0.00 | 0.00 | 33 | 1015.9 |
| 20260902034825 | 19 | 135 | 3.2 | 3.2 | 0.00 | 0.00 | 0.00 | 32 | 1015.7 |
| 20260902034424 | 19 | 92 | 1.6 | 3.2 | 0.00 | 0.00 | 0.00 | 32 | 1015.6 |
| 20260902034023 | 19 | 135 | 3.2 | 4.8 | 0.00 | 0.00 | 0.00 | 32 | 1015.6 |
| 20260902033220 | 20 | 83 | 6.4 | 6.4 | 0.00 | 0.00 | 0.00 | 31 | 1015.4 |
| 20260902032819 | 20 | 121 | 4.8 | 8.0 | 0.00 | 0.00 | 0.00 | 31 | 1015.4 |
| 20260902032419 | -17 | 78 | 4.8 | 0.0 | 0.00 | 0.00 | 0.00 | ||
| 20260902032020 | 20 | 83 | 4.8 | 4.8 | 0.00 | 0.00 | 0.00 | 30 | 1015.4 |
| 20260902030847 | 21 | 135 | 3.2 | 8.0 | 0.00 | 0.00 | 0.00 | 29 | 1015.3 |
| 20260902030812 | 21 | 135 | 3.2 | 8.0 | 0.00 | 0.00 | 0.00 | 29 | 1015.3 |
| 20260902030447 | 21 | 137 | 4.8 | 9.7 | 0.00 | 0.00 | 0.00 | 29 | 1015.3 |
| 20260902030411 | 21 | 137 | 4.8 | 9.7 | 0.00 | 0.00 | 0.00 | 29 | 1015.3 |
| 20260902030010 | 21 | 137 | 4.8 | 8.0 | 0.00 | 0.00 | 0.00 | 28 | 1015.3 |
| 20260902025608 | 21 | 121 | 4.8 | 11.3 | 0.00 | 0.00 | 0.00 | 28 | 1015.3 |
| 20260902024806 | 21 | 139 | 9.7 | 11.3 | 0.00 | 0.00 | 0.00 | 27 | 1015.1 |
| 20260902024405 | 22 | 123 | 8.0 | 9.7 | 0.00 | 0.00 | 0.00 | 26 | 1015.0 |
| 20260902023602 | 22 | 105 | 9.7 | 9.7 | 0.00 | 0.00 | 0.00 | 25 | 1014.9 |
| 20260902023200 | 22 | 128 | 8.0 | 11.3 | 0.00 | 0.00 | 0.00 | 24 | 1014.8 |
| 20260902022759 | 23 | 132 | 11.3 | 11.3 | 0.00 | 0.00 | 0.00 | 24 | 1014.8 |
| 20260902021957 | 23 | 117 | 6.4 | 9.7 | 0.00 | 0.00 | 0.00 | 23 | 1014.8 |
| 20260902021556 | 24 | 114 | 4.8 | 8.0 | 0.00 | 0.00 | 0.00 | 23 | 1014.7 |
| 20260902021155 | 24 | 101 | 3.2 | 6.4 | 0.00 | 0.00 | 0.00 | 22 | 1014.8 |
| 20260902020753 | 24 | 135 | 4.8 | 8.0 | 0.00 | 0.00 | 0.00 | 21 | 1014.7 |
| 20260902015543 | 26 | 153 | 4.8 | 8.0 | 0.00 | 0.00 | 0.00 | 20 | 1014.7 |
| 20260902014741 | 27 | 186 | 4.8 | 9.7 | 0.00 | 0.00 | 0.00 | 20 | 1014.6 |
| 20260902013938 | 27 | 182 | 4.8 | 14.5 | 0.00 | 0.00 | 0.00 | 19 | 1014.7 |
| 20260902013537 | 27 | 182 | 6.4 | 9.7 | 0.00 | 0.00 | 0.00 | 19 | 1014.7 |
| 20260902013136 | 27 | 167 | 4.8 | 9.7 | 0.00 | 0.00 | 0.00 | 18 | 1014.8 |
| 20260902012735 | 28 | 186 | 9.7 | 9.7 | 0.00 | 0.00 | 0.00 | 18 | 1014.8 |
| 20260902012333 | 28 | 184 | 8.0 | 11.3 | 0.00 | 0.00 | 0.00 | 18 | 1014.8 |
| 20260902011931 | 28 | 180 | 8.0 | 11.3 | 0.00 | 0.00 | 0.00 | 18 | 1014.7 |
| 20260902011534 | 28 | 130 | 3.2 | 8.0 | 0.00 | 0.00 | 0.00 | 18 | 1014.7 |
| 20260902011129 | 28 | 153 | 6.4 | 9.7 | 0.00 | 0.00 | 0.00 | 18 | 1014.8 |
| 20260902010728 | 28 | 189 | 8.0 | 9.7 | 0.00 | 0.00 | 0.00 | 18 | 1014.8 |
| 20260902010327 | 28 | 144 | 6.4 | 8.0 | 0.00 | 0.00 | 0.00 | 18 | 1014.9 |